createdAt,value
2023-03-18T00:03:37.757Z,97852.41
2023-03-18T00:24:42.436Z,97866.28
2023-03-18T00:27:15.180Z,97859.50
2023-03-18T00:29:47.963Z,97862.19
2023-03-18T00:40:20.350Z,97876.69
2023-03-18T00:42:57.782Z,97877.47
2023-03-18T00:45:24.666Z,97881.03
2023-03-18T00:47:51.245Z,97893.94
2023-03-18T00:50:17.997Z,97893.44
2023-03-18T00:52:45.321Z,97885.78
2023-03-18T00:57:46.430Z,97892.97
2023-03-18T01:00:13.434Z,97898.72
2023-03-18T01:02:41.388Z,97889.06
2023-03-18T01:05:08.718Z,97904.84
2023-03-18T01:07:36.555Z,97895.28
2023-03-18T01:10:03.631Z,97896.97
2023-03-18T01:12:30.222Z,97895.06
2023-03-18T01:14:56.841Z,97883.25
2023-03-18T01:17:23.467Z,97884.47
2023-03-18T01:22:27.765Z,97891.72
2023-03-18T01:38:08.687Z,97888.09
2023-03-18T01:45:59.351Z,97884.94
2023-03-18T01:48:29.603Z,97885.25
2023-03-18T01:53:44.581Z,97878.91
2023-03-18T01:56:12.085Z,97877.78
2023-03-18T02:01:20.301Z,97876.19
2023-03-18T02:19:56.053Z,97879.69
2023-03-18T02:22:25.873Z,97882.59
2023-03-18T02:25:30.988Z,97882.59
2023-03-18T02:28:03.474Z,97879.66
2023-03-18T02:44:08.955Z,97888.41
2023-03-18T02:46:41.383Z,97899.25
2023-03-18T02:49:08.621Z,97902.88
2023-03-18T02:51:37.225Z,97903.16
2023-03-18T02:54:10.311Z,97890.94
2023-03-18T02:56:38.941Z,97893.88
2023-03-18T03:01:42.951Z,97893.66
2023-03-18T03:04:09.755Z,97897.97
2023-03-18T03:06:36.838Z,97902.22
2023-03-18T03:09:05.949Z,97905.22
2023-03-18T03:16:38.716Z,97905.72
2023-03-18T03:32:05.547Z,97912.88
2023-03-18T03:47:49.063Z,97936.84
2023-03-18T03:52:59.991Z,97930.78
2023-03-18T03:55:27.156Z,97934.75
2023-03-18T03:57:54.098Z,97936.69
2023-03-18T04:03:04.916Z,97931.88
2023-03-18T04:05:31.623Z,97943.09
2023-03-18T04:10:34.912Z,97938.75
2023-03-18T04:13:01.601Z,97938.50
2023-03-18T04:15:28.672Z,97936.34
2023-03-18T04:17:55.612Z,97941.66
2023-03-18T04:20:22.710Z,97937.06
2023-03-18T04:22:49.423Z,97942.84
2023-03-18T04:25:16.160Z,97942.31
2023-03-18T04:27:43.009Z,97944.56
2023-03-18T04:32:45.258Z,97944.88
2023-03-18T04:35:12.105Z,97941.31
2023-03-18T04:37:39.877Z,97945.69
2023-03-18T04:42:47.641Z,97949.88
2023-03-18T04:53:19.127Z,97956.09
2023-03-18T04:55:45.880Z,97953.19
2023-03-18T04:58:12.485Z,97948.53
2023-03-18T05:00:39.159Z,97963.53
2023-03-18T05:05:38.652Z,97950.66
2023-03-18T05:08:05.870Z,97961.22
2023-03-18T05:10:32.551Z,97951.56
2023-03-18T05:12:59.507Z,97951.41
2023-03-18T05:15:27.711Z,97945.06
2023-03-18T05:17:54.288Z,97948.97
2023-03-18T05:20:20.893Z,97945.84
2023-03-18T05:22:47.477Z,97953.09
2023-03-18T05:25:14.144Z,97950.22
2023-03-18T05:27:41.971Z,97947.25
2023-03-18T05:30:11.221Z,97949.84
2023-03-18T05:32:38.719Z,97957.66
2023-03-18T05:35:06.001Z,97958.00
2023-03-18T05:37:32.737Z,97963.44
2023-03-18T05:39:59.332Z,97960.25
2023-03-18T05:42:25.948Z,97968.94
2023-03-18T05:44:52.591Z,97967.47
2023-03-18T05:49:50.557Z,97963.44
2023-03-18T05:52:17.640Z,97966.16
2023-03-18T05:57:22.848Z,97971.03
2023-03-18T05:59:49.433Z,97963.22
2023-03-18T06:02:16.343Z,97966.28
2023-03-18T06:04:43.131Z,97957.13
2023-03-18T06:07:09.686Z,97962.78
2023-03-18T06:09:37.077Z,97965.19
2023-03-18T06:14:37.503Z,97963.50
2023-03-18T06:17:04.106Z,97971.22
2023-03-18T06:19:32.121Z,97973.88
2023-03-18T06:21:59.016Z,97975.16
2023-03-18T06:24:25.671Z,97972.53
2023-03-18T06:26:52.645Z,97977.31
2023-03-18T06:29:20.102Z,97988.03
2023-03-18T06:31:46.858Z,97983.28
2023-03-18T06:36:44.862Z,97992.56
2023-03-18T06:39:12.340Z,97989.94
2023-03-18T06:41:38.997Z,97989.16
2023-03-18T06:46:37.496Z,97995.44
2023-03-18T06:49:04.175Z,97996.72
2023-03-18T06:51:30.850Z,97997.44
2023-03-18T06:56:37.727Z,97996.16
2023-03-18T06:59:05.387Z,97998.94
2023-03-18T07:04:07.031Z,97997.56
2023-03-18T07:06:33.975Z,97995.78
2023-03-18T07:11:39.318Z,98001.16
2023-03-18T07:14:06.049Z,98004.09
2023-03-18T07:19:04.332Z,98002.50
2023-03-18T07:21:30.985Z,97996.59
2023-03-18T07:26:29.970Z,98003.84
2023-03-18T07:28:57.017Z,98001.25
2023-03-18T07:31:25.390Z,97998.63
2023-03-18T07:36:25.832Z,98011.78
2023-03-18T07:38:52.768Z,98013.00
2023-03-18T07:43:50.864Z,98018.47
2023-03-18T07:46:17.494Z,98010.69
2023-03-18T07:48:44.329Z,98011.84
2023-03-18T07:51:10.902Z,98009.53
2023-03-18T07:56:15.299Z,98013.81
2023-03-18T08:01:16.509Z,98009.44
2023-03-18T08:03:43.961Z,98011.34
2023-03-18T08:13:59.437Z,98021.25
2023-03-18T08:16:27.265Z,98028.66
2023-03-18T08:18:53.897Z,98020.72
2023-03-18T08:21:20.669Z,98025.41
2023-03-18T08:23:47.809Z,98027.63
2023-03-18T08:26:14.897Z,98033.13
2023-03-18T08:28:41.936Z,98026.84
2023-03-18T08:31:09.689Z,98025.97
2023-03-18T08:33:36.798Z,98027.13
2023-03-18T08:38:35.376Z,98032.63
2023-03-18T08:41:02.001Z,98026.84
2023-03-18T08:43:28.609Z,98023.88
2023-03-18T08:45:55.979Z,98025.03
2023-03-18T08:48:23.656Z,98030.09
2023-03-18T08:50:50.425Z,98024.34
2023-03-18T08:53:17.993Z,98028.56
2023-03-18T08:58:16.376Z,98018.00
2023-03-18T09:00:43.448Z,98008.66
2023-03-18T09:03:10.491Z,98011.06
2023-03-18T09:05:37.880Z,98012.03
2023-03-18T09:08:05.346Z,98015.00
2023-03-18T09:10:32.018Z,98004.91
2023-03-18T09:12:59.445Z,98007.41
2023-03-18T09:15:26.420Z,98005.97
2023-03-18T09:18:09.927Z,98003.13
2023-03-18T09:20:37.877Z,98008.09
2023-03-18T09:23:04.814Z,98010.19
2023-03-18T09:25:31.725Z,98003.31
2023-03-18T09:27:58.672Z,98006.53
2023-03-18T09:30:26.645Z,98007.28
2023-03-18T09:32:54.142Z,98003.31
2023-03-18T09:35:20.868Z,98002.88
2023-03-18T09:37:47.798Z,98001.75
2023-03-18T09:40:25.589Z,97997.53
2023-03-18T09:43:29.876Z,97990.34
2023-03-18T09:46:35.235Z,97982.66
2023-03-18T09:49:18.202Z,97988.44
2023-03-18T09:51:59.216Z,97987.91
2023-03-18T09:54:44.947Z,97989.63
2023-03-18T09:57:33.946Z,97993.00
2023-03-18T10:00:26.551Z,97996.03
2023-03-18T10:03:06.232Z,97992.56
2023-03-18T10:05:40.708Z,97994.06
2023-03-18T10:08:17.152Z,97985.50
2023-03-18T10:10:46.888Z,97987.22
2023-03-18T10:13:18.553Z,97977.94
2023-03-18T10:18:37.933Z,97971.25
2023-03-18T10:21:16.548Z,97968.31
2023-03-18T10:24:00.099Z,97971.56
2023-03-18T10:26:32.352Z,97976.47
2023-03-18T10:29:34.979Z,97974.09
2023-03-18T10:32:46.450Z,97966.84
2023-03-18T10:35:31.455Z,97963.09
2023-03-18T10:38:04.752Z,97965.69
2023-03-18T10:40:39.984Z,97969.44
2023-03-18T10:43:34.067Z,97962.81
2023-03-18T10:46:03.877Z,97957.25
2023-03-18T10:48:37.233Z,97955.88
2023-03-18T10:51:17.154Z,97958.56
2023-03-18T10:53:53.028Z,97956.53
2023-03-18T10:56:19.834Z,97962.03
2023-03-18T10:58:47.124Z,97957.47
2023-03-18T11:01:19.825Z,97947.28
2023-03-18T11:03:59.312Z,97956.56
2023-03-18T11:06:53.321Z,97944.03
2023-03-18T11:09:22.567Z,97940.84
2023-03-18T11:11:50.925Z,97939.88
2023-03-18T11:14:22.958Z,97931.09
2023-03-18T11:16:57.882Z,97933.78
2023-03-18T11:19:35.632Z,97935.38
2023-03-18T11:22:07.886Z,97933.03
2023-03-18T11:24:42.829Z,97928.06
2023-03-18T11:27:16.122Z,97921.09
2023-03-18T11:29:47.019Z,97923.19
2023-03-18T11:32:28.972Z,97924.34
2023-03-18T11:35:00.813Z,97926.25
2023-03-18T11:37:38.283Z,97913.44
2023-03-18T11:40:13.647Z,97908.09
2023-03-18T11:45:43.653Z,97911.56
2023-03-18T11:48:20.024Z,97904.09
2023-03-18T11:51:00.758Z,97896.06
2023-03-18T11:54:11.771Z,97899.31
2023-03-18T11:56:48.995Z,97895.69
2023-03-18T11:59:21.669Z,97902.66
2023-03-18T12:02:07.984Z,97888.56
2023-03-18T12:04:52.853Z,97892.50
2023-03-18T12:07:41.818Z,97884.34
2023-03-18T12:10:37.766Z,97877.44
2023-03-18T12:13:41.162Z,97882.16
2023-03-18T12:16:11.110Z,97871.06
2023-03-18T12:19:09.607Z,97876.22
2023-03-18T12:22:12.786Z,97872.31
2023-03-18T12:24:57.221Z,97870.34
2023-03-18T12:27:45.743Z,97868.31
2023-03-18T12:30:27.119Z,97874.53
2023-03-18T12:33:11.034Z,97855.78
2023-03-18T12:35:40.521Z,97861.22
2023-03-18T12:38:25.710Z,97851.94
2023-03-18T12:40:59.908Z,97847.84
2023-03-18T12:43:43.926Z,97840.81
2023-03-18T12:46:27.666Z,97850.38
2023-03-18T12:49:16.263Z,97844.22
2023-03-18T12:52:06.479Z,97840.84
2023-03-18T12:54:55.995Z,97838.03
2023-03-18T12:57:50.286Z,97829.28
2023-03-18T13:00:37.236Z,97835.63
2023-03-18T13:03:41.109Z,97829.75
2023-03-18T13:06:26.792Z,97823.66
2023-03-18T13:09:10.952Z,97828.03
2023-03-18T13:11:53.042Z,97821.41
2023-03-18T13:14:43.483Z,97819.06
2023-03-18T13:17:44.783Z,97817.09
2023-03-18T13:20:22.269Z,97817.84
2023-03-18T13:23:07.945Z,97812.75
2023-03-18T13:25:46.719Z,97806.00
2023-03-18T13:28:51.527Z,97812.06
2023-03-18T13:31:48.056Z,97803.38
2023-03-18T13:34:56.505Z,97804.00
2023-03-18T13:37:55.867Z,97803.09
2023-03-18T13:40:36.929Z,97798.09
2023-03-18T13:43:05.885Z,97808.44
2023-03-18T13:45:38.315Z,97810.16
2023-03-18T13:48:29.177Z,97807.53
2023-03-18T13:50:58.960Z,97807.91
2023-03-18T13:53:32.038Z,97801.28
2023-03-18T13:58:35.516Z,97804.06
2023-03-18T14:01:28.736Z,97800.09
2023-03-18T14:03:59.384Z,97807.78
2023-03-18T14:06:34.946Z,97803.31
2023-03-18T14:09:41.930Z,97804.72
2023-03-18T14:12:24.125Z,97803.91
2023-03-18T14:14:51.512Z,97802.94
2023-03-18T14:17:28.147Z,97792.22
2023-03-18T14:19:57.057Z,97787.53
2023-03-18T14:22:33.930Z,97794.31
2023-03-18T14:25:19.042Z,97801.56
2023-03-18T14:27:48.907Z,97794.88
2023-03-18T14:30:31.872Z,97793.25
2023-03-18T14:33:01.339Z,97797.16
2023-03-18T14:35:30.274Z,97785.97
2023-03-18T14:38:03.726Z,97789.66
2023-03-18T14:40:46.576Z,97790.19
2023-03-18T14:43:38.415Z,97784.34
2023-03-18T14:46:14.133Z,97786.69
2023-03-18T14:48:40.937Z,97785.00
2023-03-18T14:51:14.564Z,97787.34
2023-03-18T14:53:49.005Z,97781.81
2023-03-18T14:56:23.439Z,97782.25
2023-03-18T14:58:53.720Z,97775.28
2023-03-18T15:01:26.646Z,97776.81
2023-03-18T15:03:55.472Z,97775.59
2023-03-18T15:06:26.994Z,97764.63
2023-03-18T15:09:00.932Z,97767.50
2023-03-18T15:11:30.056Z,97762.50
2023-03-18T15:14:00.111Z,97757.16
2023-03-18T15:16:33.028Z,97759.38
2023-03-18T15:19:00.394Z,97762.91
2023-03-18T15:21:30.830Z,97764.34
2023-03-18T15:24:04.127Z,97762.56
2023-03-18T15:26:34.089Z,97760.19
2023-03-18T15:29:18.063Z,97756.13
2023-03-18T15:31:45.132Z,97750.47
2023-03-18T15:34:20.169Z,97748.78
2023-03-18T15:36:53.517Z,97752.66
2023-03-18T15:39:42.064Z,97751.97
2023-03-18T15:42:19.810Z,97760.31
2023-03-18T15:44:58.563Z,97749.50
2023-03-18T15:47:32.717Z,97755.03
2023-03-18T15:50:02.452Z,97745.84
2023-03-18T15:55:32.012Z,97751.13
2023-03-18T15:57:59.665Z,97753.09
2023-03-18T16:00:26.870Z,97754.50
2023-03-18T16:02:53.877Z,97758.78
2023-03-18T16:05:26.332Z,97761.72
2023-03-18T16:07:54.062Z,97764.59
2023-03-18T16:10:23.277Z,97760.09
2023-03-18T16:13:01.932Z,97765.03
2023-03-18T16:15:29.973Z,97763.25
2023-03-18T16:17:57.965Z,97765.47
2023-03-18T16:20:29.721Z,97777.84
2023-03-18T16:22:57.290Z,97770.34
2023-03-18T16:25:24.958Z,97776.28
2023-03-18T16:27:56.350Z,97784.31
2023-03-18T16:30:26.155Z,97786.41
2023-03-18T16:32:54.206Z,97794.91
2023-03-18T16:35:25.571Z,97802.28
2023-03-18T16:37:53.472Z,97800.81
2023-03-18T16:43:03.229Z,97808.16
2023-03-18T16:45:34.259Z,97811.66
2023-03-18T16:48:07.085Z,97815.19
2023-03-18T16:50:37.458Z,97813.81
2023-03-18T16:53:14.125Z,97819.72
2023-03-18T16:58:23.532Z,97826.53
2023-03-18T17:03:23.264Z,97830.63
2023-03-18T17:05:51.005Z,97826.88
2023-03-18T17:08:19.730Z,97834.22
2023-03-18T17:10:49.962Z,97843.44
2023-03-18T17:13:26.067Z,97849.47
2023-03-18T17:15:53.274Z,97852.69
2023-03-18T17:18:22.427Z,97859.09
2023-03-18T17:23:23.628Z,97860.38
2023-03-18T17:25:54.881Z,97858.50
2023-03-18T17:28:33.125Z,97861.47
2023-03-18T17:31:00.190Z,97860.69
2023-03-18T17:33:31.188Z,97863.88
2023-03-18T17:35:58.863Z,97857.69
2023-03-18T17:38:26.056Z,97864.88
2023-03-18T17:40:53.477Z,97865.22
2023-03-18T17:43:34.629Z,97868.44
2023-03-18T17:46:03.423Z,97873.97
2023-03-18T17:48:35.151Z,97876.41
2023-03-18T17:56:20.382Z,97871.16
2023-03-18T17:58:49.819Z,97868.00
2023-03-18T18:01:20.586Z,97876.69
2023-03-18T18:03:47.983Z,97880.72
2023-03-18T18:06:20.525Z,97878.28
2023-03-18T18:08:48.482Z,97880.59
2023-03-18T18:11:22.448Z,97881.25
2023-03-18T18:13:50.197Z,97879.22
2023-03-18T18:16:17.377Z,97878.13
2023-03-18T18:18:44.059Z,97885.69
2023-03-18T18:21:15.137Z,97880.63
2023-03-18T18:23:44.034Z,97883.47
2023-03-18T18:26:15.644Z,97879.00
2023-03-18T18:28:48.066Z,97874.56
2023-03-18T18:31:17.697Z,97875.31
2023-03-18T18:33:45.702Z,97877.69
2023-03-18T18:38:45.526Z,97884.34
2023-03-18T18:41:12.222Z,97886.00
2023-03-18T18:43:38.856Z,97893.91
2023-03-18T18:48:48.402Z,97887.47
2023-03-18T18:53:56.681Z,97895.38
2023-03-18T18:56:26.393Z,97897.91
2023-03-18T18:58:53.400Z,97896.50
2023-03-18T19:01:20.837Z,97896.19
2023-03-18T19:03:48.496Z,97894.25
2023-03-18T19:08:56.768Z,97899.06
2023-03-18T19:11:25.004Z,97905.34
2023-03-18T19:13:52.627Z,97903.00
2023-03-18T19:16:35.186Z,97894.00
2023-03-18T19:19:03.058Z,97896.72
2023-03-18T19:21:29.712Z,97901.41
2023-03-18T19:23:58.360Z,97905.34
2023-03-18T19:26:25.085Z,97900.66
2023-03-18T19:29:01.560Z,97903.03
2023-03-18T19:31:32.398Z,97904.22
2023-03-18T19:34:00.286Z,97908.50
2023-03-18T19:36:31.717Z,97903.44
2023-03-18T19:39:00.238Z,97909.28
2023-03-18T19:44:15.556Z,97914.78
2023-03-18T19:46:42.380Z,97917.13
2023-03-18T19:49:35.937Z,97924.16
2023-03-18T19:52:15.709Z,97920.63
2023-03-18T19:54:42.707Z,97921.81
2023-03-18T19:57:15.393Z,97922.59
2023-03-18T19:59:43.647Z,97921.03
2023-03-18T20:02:27.117Z,97931.22
2023-03-18T20:04:59.200Z,97929.25
2023-03-18T20:07:29.046Z,97934.34
2023-03-18T20:09:56.436Z,97929.25
2023-03-18T20:12:32.044Z,97943.34
2023-03-18T20:14:58.699Z,97941.00
2023-03-18T20:17:43.317Z,97950.75
2023-03-18T20:20:16.812Z,97949.16
2023-03-18T20:22:48.194Z,97948.38
2023-03-18T20:25:21.407Z,97945.28
2023-03-18T20:30:33.403Z,97945.22
2023-03-18T20:33:00.758Z,97945.19
2023-03-18T20:35:29.677Z,97947.59
2023-03-18T20:37:58.402Z,97953.47
2023-03-18T20:40:27.739Z,97960.16
2023-03-18T20:42:55.394Z,97963.25
2023-03-18T20:45:23.382Z,97965.91
2023-03-18T20:47:50.686Z,97963.94
2023-03-18T20:50:20.187Z,97966.31
2023-03-18T20:52:48.091Z,97958.47
2023-03-18T20:55:27.101Z,97962.44
2023-03-18T20:57:54.026Z,97963.25
2023-03-18T21:00:24.066Z,97969.41
2023-03-18T21:02:53.161Z,97965.16
2023-03-18T21:05:20.135Z,97958.50
2023-03-18T21:07:49.697Z,97962.34
2023-03-18T21:10:27.455Z,97960.38
2023-03-18T21:12:54.649Z,97956.44
2023-03-18T21:15:24.831Z,97957.63
2023-03-18T21:20:29.425Z,97960.75
2023-03-18T21:22:57.212Z,97960.44
2023-03-18T21:25:26.439Z,97956.16
2023-03-18T21:27:53.743Z,97965.94
2023-03-18T21:30:22.589Z,97957.72
2023-03-18T21:32:51.092Z,97967.13
2023-03-18T21:35:25.783Z,97966.75
2023-03-18T21:37:53.112Z,97968.66
2023-03-18T21:40:25.116Z,97961.53
2023-03-18T21:42:52.230Z,97966.72
2023-03-18T21:45:21.655Z,97968.28
2023-03-18T21:47:48.456Z,97959.31
2023-03-18T21:50:33.482Z,97973.47
2023-03-18T21:53:00.162Z,97971.09
2023-03-18T21:55:26.775Z,97975.41
2023-03-18T21:57:53.416Z,97963.28
2023-03-18T22:00:20.749Z,97963.22
2023-03-18T22:02:48.042Z,97960.44
2023-03-18T22:05:19.025Z,97967.50
2023-03-18T22:07:46.322Z,97974.50
2023-03-18T22:10:18.591Z,97978.81
2023-03-18T22:12:45.626Z,97978.00
2023-03-18T22:15:24.344Z,97980.28
2023-03-18T22:17:51.989Z,97971.59
2023-03-18T22:20:18.865Z,97975.47
2023-03-18T22:22:45.777Z,97972.53
2023-03-18T22:25:34.215Z,97967.13
2023-03-18T22:28:00.982Z,97973.06
2023-03-18T22:30:29.558Z,97976.94
2023-03-18T22:32:57.495Z,97978.53
2023-03-18T22:35:27.404Z,97973.38
2023-03-18T22:37:54.331Z,97978.25
2023-03-18T22:40:26.622Z,97973.47
2023-03-18T22:42:56.092Z,97982.09
2023-03-18T22:45:35.811Z,97984.25
2023-03-18T22:48:04.173Z,97983.53
2023-03-18T22:50:34.521Z,97986.25
2023-03-18T22:53:09.605Z,97994.31
2023-03-18T22:55:39.007Z,97983.03
2023-03-18T22:58:06.069Z,97983.84
2023-03-18T23:00:38.875Z,97980.41
2023-03-18T23:03:15.091Z,97983.13
2023-03-18T23:05:41.746Z,97987.94
2023-03-18T23:08:08.355Z,97991.78
2023-03-18T23:10:34.947Z,97992.69
2023-03-18T23:13:01.676Z,97990.56
2023-03-18T23:15:28.304Z,97994.31
2023-03-18T23:17:54.860Z,97992.69
2023-03-18T23:20:21.491Z,97990.00
2023-03-18T23:22:48.147Z,97992.78
2023-03-18T23:25:17.979Z,97987.31
2023-03-18T23:27:45.541Z,97996.00
2023-03-18T23:30:13.906Z,97998.31
2023-03-18T23:32:41.342Z,97990.28
2023-03-18T23:35:09.331Z,97990.28
2023-03-18T23:37:36.546Z,97993.00
2023-03-18T23:40:04.325Z,97993.88
2023-03-18T23:42:30.940Z,97997.19
2023-03-18T23:44:57.509Z,98001.78
2023-03-18T23:47:24.117Z,98003.72
2023-03-18T23:49:50.866Z,98004.88
2023-03-18T23:52:17.618Z,97999.50
2023-03-18T23:54:44.274Z,98010.34
2023-03-18T23:57:11.528Z,98009.25
2023-03-18T23:59:38.699Z,98010.75
